Time;durP1;ratioP1;P1;durP2;ratioP2;P2;SDS_P1;SDS_P2;PMS_P1;PMS_P2;Temp;Humidity;BMP_temperature;BMP_pressure;BME280_temperature;BME280_humidity;BME280_pressure;Samples;Min_cycle;Max_cycle;Signal;HPM_P1;HPM_P2
2020/12/31 00:01:46;;;;;;;;;;;;;;;1.88;96.85;97843.28;5051299;28;19924;-81
2020/12/31 00:04:11;;;;;;;;;;;;;;;1.80;97.20;97838.31;5050812;28;19927;-81
2020/12/31 00:06:37;;;;;;;;;;;;;;;1.76;96.64;97838.41;5066758;28;20847;-81
2020/12/31 00:09:02;;;;;;;;;;;;;;;1.75;96.49;97834.16;5084487;28;20026;-80
2020/12/31 00:11:27;;;;;;;;;;;;;;;1.74;96.89;97835.03;5067428;28;20065;-80
2020/12/31 00:13:53;;;;;;;;;;;;;;;1.72;97.09;97832.50;5049695;28;19951;-81
2020/12/31 00:16:18;;;;;;;;;;;;;;;1.72;96.18;97831.69;5082371;28;19920;-81
2020/12/31 00:18:43;;;;;;;;;;;;;;;1.60;96.53;97831.00;5053337;28;19924;-80
2020/12/31 00:21:09;;;;;;;;;;;;;;;1.60;96.90;97825.94;5064216;28;20054;-80
2020/12/31 00:23:34;;;;;;;;;;;;;;;1.60;96.89;97823.41;5058789;28;20986;-80
2020/12/31 00:25:59;;;;;;;;;;;;;;;1.46;96.89;97823.59;5065633;28;19916;-80
2020/12/31 00:28:25;;;;;;;;;;;;;;;1.64;96.54;97819.09;5066700;28;19920;-80
2020/12/31 00:30:50;;;;;;;;;;;;;;;1.75;96.52;97814.69;5066783;28;19951;-80
2020/12/31 00:33:19;;;;;;;;;;;;;;;1.80;95.00;97819.69;5065270;28;19920;-80
2020/12/31 00:35:45;;;;;;;;;;;;;;;1.63;95.88;97818.25;5066633;28;20377;-80
2020/12/31 00:38:11;;;;;;;;;;;;;;;1.81;95.78;97818.84;5066582;28;19924;-80
2020/12/31 00:40:36;;;;;;;;;;;;;;;1.76;95.37;97823.16;5066655;28;19981;-80
2020/12/31 00:43:02;;;;;;;;;;;;;;;1.66;95.82;97825.81;5064582;28;20581;-80
2020/12/31 00:45:27;;;;;;;;;;;;;;;1.56;96.22;97824.28;5066578;28;19924;-80
2020/12/31 00:47:52;;;;;;;;;;;;;;;1.57;96.10;97830.19;5084469;28;20282;-80
2020/12/31 00:50:18;;;;;;;;;;;;;;;1.39;96.51;97828.75;5084354;28;19916;-80
2020/12/31 00:52:43;;;;;;;;;;;;;;;1.51;96.79;97827.78;5066379;28;20459;-80
2020/12/31 00:55:08;;;;;;;;;;;;;;;1.54;96.48;97827.72;5066366;28;19917;-79
2020/12/31 00:57:34;;;;;;;;;;;;;;;1.59;96.34;97831.84;5067079;28;19931;-79
2020/12/31 00:59:59;;;;;;;;;;;;;;;1.28;96.95;97834.00;5083811;28;19924;-80
2020/12/31 01:02:24;;;;;;;;;;;;;;;1.32;97.12;97822.09;5065476;28;20631;-80
2020/12/31 01:04:49;;;;;;;;;;;;;;;1.38;97.38;97827.09;5049591;28;19968;-80
2020/12/31 01:07:18;;;;;;;;;;;;;;;1.35;96.77;97814.47;5067227;28;19920;-80
2020/12/31 01:09:43;;;;;;;;;;;;;;;1.28;97.39;97820.47;5065422;28;19931;-80
2020/12/31 01:12:12;;;;;;;;;;;;;;;1.19;97.82;97822.28;5065944;28;19916;-79
2020/12/31 01:14:37;;;;;;;;;;;;;;;1.27;97.44;97821.34;5065319;28;19919;-80
2020/12/31 01:17:02;;;;;;;;;;;;;;;1.34;97.03;97815.31;5046938;28;20317;-80
2020/12/31 01:19:28;;;;;;;;;;;;;;;1.26;97.41;97817.97;5056389;28;19931;-80
2020/12/31 01:21:53;;;;;;;;;;;;;;;1.30;97.42;97816.22;5065007;28;20038;-80
2020/12/31 01:24:19;;;;;;;;;;;;;;;1.20;97.48;97815.50;5066252;28;20010;-80
2020/12/31 01:26:44;;;;;;;;;;;;;;;1.21;97.85;97818.03;5065605;28;19917;-80
2020/12/31 01:29:09;;;;;;;;;;;;;;;1.23;97.63;97823.06;5049172;28;19931;-80
2020/12/31 01:31:35;;;;;;;;;;;;;;;1.14;98.46;97818.97;5065572;28;19920;-80
2020/12/31 01:34:00;;;;;;;;;;;;;;;1.09;98.21;97814.81;5065757;28;19916;-80
2020/12/31 01:36:25;;;;;;;;;;;;;;;1.12;97.66;97819.84;5066061;28;19923;-80
2020/12/31 01:38:51;;;;;;;;;;;;;;;1.15;97.98;97820.66;5052190;28;19924;-80
2020/12/31 01:41:22;;;;;;;;;;;;;;;1.08;98.26;97819.06;5051900;28;19951;-80
2020/12/31 01:43:59;;;;;;;;;;;;;;;1.11;98.15;97833.38;5068480;28;19923;-80
2020/12/31 01:46:25;;;;;;;;;;;;;;;1.06;98.40;97823.31;5068588;28;20428;-80
2020/12/31 01:48:50;;;;;;;;;;;;;;;1.15;98.08;97823.19;5067566;28;19920;-80
2020/12/31 01:51:15;;;;;;;;;;;;;;;1.13;98.13;97824.91;5052512;28;19946;-80
2020/12/31 01:53:41;;;;;;;;;;;;;;;1.21;97.83;97827.34;5083995;28;20026;-80
2020/12/31 01:56:06;;;;;;;;;;;;;;;1.22;97.75;97826.47;5052420;28;19931;-80
2020/12/31 01:58:31;;;;;;;;;;;;;;;1.18;98.30;97824.84;5067654;28;19963;-80
2020/12/31 02:00:57;;;;;;;;;;;;;;;1.19;98.04;97816.38;5069658;28;20003;-80
2020/12/31 02:03:22;;;;;;;;;;;;;;;1.24;98.11;97819.69;5085012;28;20335;-80
2020/12/31 02:05:47;;;;;;;;;;;;;;;1.28;97.78;97820.47;5085947;28;20374;-80
2020/12/31 02:08:13;;;;;;;;;;;;;;;1.14;98.23;97818.13;5068265;28;20699;-80
2020/12/31 02:10:38;;;;;;;;;;;;;;;1.15;98.56;97824.88;5064954;28;20579;-81
2020/12/31 02:13:03;;;;;;;;;;;;;;;1.17;98.19;97821.47;5085875;28;19931;-80
2020/12/31 02:15:29;;;;;;;;;;;;;;;1.14;98.35;97815.59;5052484;28;20373;-80
2020/12/31 02:17:54;;;;;;;;;;;;;;;1.18;98.50;97815.53;5056908;28;19924;-81
2020/12/31 02:20:19;;;;;;;;;;;;;;;1.23;98.33;97813.78;5069259;28;19924;-80
2020/12/31 02:22:45;;;;;;;;;;;;;;;1.24;98.15;97814.63;5086139;28;19920;-80
2020/12/31 02:25:10;;;;;;;;;;;;;;;1.19;99.06;97819.75;5050003;28;20412;-80
2020/12/31 02:27:35;;;;;;;;;;;;;;;1.29;98.37;97814.56;5068641;28;19934;-80
2020/12/31 02:30:01;;;;;;;;;;;;;;;1.38;97.82;97810.19;5059048;28;19920;-81
2020/12/31 02:32:26;;;;;;;;;;;;;;;1.30;98.64;97819.63;5051120;28;19927;-81
2020/12/31 02:34:51;;;;;;;;;;;;;;;1.32;98.80;97817.03;5066895;28;19916;-81
2020/12/31 02:37:17;;;;;;;;;;;;;;;1.43;98.06;97815.19;5085197;28;19920;-81
2020/12/31 02:39:42;;;;;;;;;;;;;;;1.41;98.27;97812.66;5066464;28;20042;-81
2020/12/31 02:42:07;;;;;;;;;;;;;;;1.46;98.30;97815.16;5052544;28;19924;-81
2020/12/31 02:44:32;;;;;;;;;;;;;;;1.40;98.14;97803.38;5067936;28;19924;-82
2020/12/31 02:46:58;;;;;;;;;;;;;;;1.50;98.19;97804.06;5051836;28;19963;-81
2020/12/31 02:49:23;;;;;;;;;;;;;;;1.51;98.03;97803.22;5068696;28;20030;-81
2020/12/31 02:51:48;;;;;;;;;;;;;;;1.53;97.89;97805.72;5067861;28;20007;-81
2020/12/31 02:54:14;;;;;;;;;;;;;;;1.52;98.08;97804.06;5058200;28;20037;-81
2020/12/31 02:56:39;;;;;;;;;;;;;;;1.51;97.74;97798.16;5085800;28;20030;-81
2020/12/31 02:59:04;;;;;;;;;;;;;;;1.57;97.72;97800.59;5055361;28;19920;-81
2020/12/31 03:01:30;;;;;;;;;;;;;;;1.50;98.22;97804.06;5067642;28;19984;-82
2020/12/31 03:03:55;;;;;;;;;;;;;;;1.50;98.08;97796.47;5059826;28;20334;-82
2020/12/31 03:06:20;;;;;;;;;;;;;;;1.52;98.31;97792.22;5069053;28;19923;-82
2020/12/31 03:08:46;;;;;;;;;;;;;;;1.51;98.09;97790.56;5068291;28;20471;-82
2020/12/31 03:11:21;;;;;;;;;;;;;;;1.49;98.62;97789.72;5055109;28;19920;-82
2020/12/31 03:13:47;;;;;;;;;;;;;;;1.47;98.49;97786.38;5050169;28;19924;-81
2020/12/31 03:16:12;;;;;;;;;;;;;;;1.44;98.82;97786.44;5067223;28;19923;-81
2020/12/31 03:18:38;;;;;;;;;;;;;;;1.45;98.63;97777.94;5083489;28;20655;-81
2020/12/31 03:21:03;;;;;;;;;;;;;;;1.42;98.89;97770.41;5049387;28;19916;-81
2020/12/31 03:23:29;;;;;;;;;;;;;;;1.48;98.81;97772.00;5049490;28;19973;-80
2020/12/31 03:25:54;;;;;;;;;;;;;;;1.45;98.25;97768.63;5081015;28;20007;-82
2020/12/31 03:28:20;;;;;;;;;;;;;;;1.50;98.11;97773.63;5067340;28;19920;-81
2020/12/31 03:30:45;;;;;;;;;;;;;;;1.45;98.42;97770.34;5066732;28;19920;-81
2020/12/31 03:33:13;;;;;;;;;;;;;;;1.48;98.77;97766.91;5067917;28;19920;-81
2020/12/31 03:35:43;;;;;;;;;;;;;;;1.46;98.62;97759.34;5064349;28;19963;-81
2020/12/31 03:38:08;;;;;;;;;;;;;;;1.50;98.90;97762.66;5067066;28;20027;-81
2020/12/31 03:40:33;;;;;;;;;;;;;;;1.45;98.53;97762.72;5085593;28;20042;-82
2020/12/31 03:42:59;;;;;;;;;;;;;;;1.47;98.19;97753.41;5050972;28;19926;-82
2020/12/31 03:45:24;;;;;;;;;;;;;;;1.48;98.20;97760.13;5048804;28;19923;-82
2020/12/31 03:47:49;;;;;;;;;;;;;;;1.46;98.41;97760.19;5050537;28;19931;-81
2020/12/31 03:50:15;;;;;;;;;;;;;;;1.36;98.60;97757.81;5067453;28;19963;-81
2020/12/31 03:52:40;;;;;;;;;;;;;;;1.39;98.78;97752.66;5067450;28;19916;-81
2020/12/31 03:55:05;;;;;;;;;;;;;;;1.37;98.96;97744.25;5067335;28;19917;-81
2020/12/31 03:57:31;;;;;;;;;;;;;;;1.36;98.40;97740.88;5067415;28;19920;-81
2020/12/31 03:59:56;;;;;;;;;;;;;;;1.39;98.54;97737.44;5067224;28;19939;-82
2020/12/31 04:02:21;;;;;;;;;;;;;;;1.39;98.49;97742.53;5066764;28;19920;-81
2020/12/31 04:04:47;;;;;;;;;;;;;;;1.44;98.76;97740.78;5073844;28;20045;-82
2020/12/31 04:07:12;;;;;;;;;;;;;;;1.38;98.36;97735.78;5068239;28;20492;-81
2020/12/31 04:09:37;;;;;;;;;;;;;;;1.40;98.46;97729.00;5063355;28;19931;-82
2020/12/31 04:12:03;;;;;;;;;;;;;;;1.38;98.24;97725.63;5050760;28;19920;-81
2020/12/31 04:14:28;;;;;;;;;;;;;;;1.38;98.47;97725.63;5065865;28;20419;-81
2020/12/31 04:16:53;;;;;;;;;;;;;;;1.36;98.80;97727.34;5084395;28;19995;-82
2020/12/31 04:19:19;;;;;;;;;;;;;;;1.35;98.24;97720.63;5050831;28;20527;-81
2020/12/31 04:21:44;;;;;;;;;;;;;;;1.34;98.78;97713.88;5066034;28;19912;-81
2020/12/31 04:24:09;;;;;;;;;;;;;;;1.35;98.41;97715.56;5083535;28;20010;-81
2020/12/31 04:26:35;;;;;;;;;;;;;;;1.38;98.29;97720.56;5050945;28;19920;-81
2020/12/31 04:29:00;;;;;;;;;;;;;;;1.32;98.40;97713.03;5050474;28;20270;-81
2020/12/31 04:31:25;;;;;;;;;;;;;;;1.36;98.32;97719.75;5067053;28;19962;-81
2020/12/31 04:33:51;;;;;;;;;;;;;;;1.30;98.31;97718.16;5067617;28;20011;-81
2020/12/31 04:36:17;;;;;;;;;;;;;;;1.34;98.14;97708.78;5065823;28;20377;-81
2020/12/31 04:38:42;;;;;;;;;;;;;;;1.32;98.68;97718.13;5064158;28;20030;-81
2020/12/31 04:41:07;;;;;;;;;;;;;;;1.29;98.36;97708.03;5066662;28;19997;-81
2020/12/31 04:43:34;;;;;;;;;;;;;;;1.29;98.46;97702.97;5066603;28;19987;-81
2020/12/31 04:46:00;;;;;;;;;;;;;;;1.33;98.19;97704.59;5067984;28;19916;-81
2020/12/31 04:48:27;;;;;;;;;;;;;;;1.33;98.16;97718.09;5065859;28;20979;-81
2020/12/31 04:50:55;;;;;;;;;;;;;;;1.34;98.48;97717.22;5065942;28;19915;-81
2020/12/31 04:53:20;;;;;;;;;;;;;;;1.32;98.51;97713.03;5049718;28;20002;-81
2020/12/31 04:55:46;;;;;;;;;;;;;;;1.39;98.44;97709.53;5050128;28;20023;-81
2020/12/31 04:58:12;;;;;;;;;;;;;;;1.37;98.66;97709.59;5047024;28;20971;-81
2020/12/31 05:00:38;;;;;;;;;;;;;;;1.34;98.49;97713.88;5057535;28;20349;-81
2020/12/31 05:03:03;;;;;;;;;;;;;;;1.28;98.97;97703.81;5066931;28;19934;-80
2020/12/31 05:05:28;;;;;;;;;;;;;;;1.33;98.74;97714.75;5050698;28;19965;-81
2020/12/31 05:07:54;;;;;;;;;;;;;;;1.24;99.14;97706.41;5048554;28;19916;-81
2020/12/31 05:10:19;;;;;;;;;;;;;;;1.29;98.97;97710.56;5048375;28;20015;-81
2020/12/31 05:12:44;;;;;;;;;;;;;;;1.29;98.95;97708.88;5064568;28;19916;-81
2020/12/31 05:15:10;;;;;;;;;;;;;;;1.31;98.61;97708.84;5055196;28;19916;-81
2020/12/31 05:17:35;;;;;;;;;;;;;;;1.29;99.16;97710.56;5054186;28;19925;-82
2020/12/31 05:20:13;;;;;;;;;;;;;;;1.35;98.71;97701.16;5028652;28;19935;-81
2020/12/31 05:22:40;;;;;;;;;;;;;;;1.33;99.39;97712.19;5044324;28;20217;-81
2020/12/31 05:25:06;;;;;;;;;;;;;;;1.36;98.81;97718.03;5046436;28;20430;-81
2020/12/31 05:27:31;;;;;;;;;;;;;;;1.37;98.83;97707.06;5045310;28;19919;-81
2020/12/31 05:29:57;;;;;;;;;;;;;;;1.42;98.80;97715.41;5047449;28;19963;-81
2020/12/31 05:32:23;;;;;;;;;;;;;;;1.37;99.27;97718.88;5035336;28;20381;-81
2020/12/31 05:34:49;;;;;;;;;;;;;;;1.40;98.42;97714.59;5046077;28;19924;-81
2020/12/31 05:37:15;;;;;;;;;;;;;;;1.47;98.57;97715.34;5046050;28;19917;-81
2020/12/31 05:40:00;;;;;;;;;;;;;;;1.49;98.67;97717.88;5046567;28;19925;-82
2020/12/31 05:42:29;;;;;;;;;;;;;;;1.51;98.53;97716.97;5044228;28;19921;-81
2020/12/31 05:44:58;;;;;;;;;;;;;;;1.53;98.36;97710.19;5062958;28;19916;-81
2020/12/31 05:47:23;;;;;;;;;;;;;;;1.47;98.76;97710.28;5062624;28;19920;-82
2020/12/31 05:49:49;;;;;;;;;;;;;;;1.48;98.66;97713.63;5029502;28;19994;-81
2020/12/31 05:52:31;;;;;;;;;;;;;;;1.40;99.09;97708.69;5029766;28;19927;-81
2020/12/31 05:54:56;;;;;;;;;;;;;;;1.45;98.76;97710.28;5045442;28;20043;-81
2020/12/31 05:57:21;;;;;;;;;;;;;;;1.42;98.99;97710.34;5029477;28;20030;-82
2020/12/31 05:59:47;;;;;;;;;;;;;;;1.44;98.94;97710.34;5029015;28;19920;-81
2020/12/31 06:02:12;;;;;;;;;;;;;;;1.43;99.16;97708.63;5046001;28;19932;-81
2020/12/31 06:04:45;;;;;;;;;;;;;;;1.49;98.75;97710.25;5042917;28;19925;-81
2020/12/31 06:07:13;;;;;;;;;;;;;;;1.55;98.88;97718.59;5043957;28;19925;-81
2020/12/31 06:09:38;;;;;;;;;;;;;;;1.53;98.86;97712.72;5042442;28;19920;-81
2020/12/31 06:12:08;;;;;;;;;;;;;;;1.50;98.80;97710.22;5042555;28;19932;-81
2020/12/31 06:14:33;;;;;;;;;;;;;;;1.48;98.93;97719.53;5043768;28;20448;-81
2020/12/31 06:17:00;;;;;;;;;;;;;;;1.53;98.97;97709.31;5049208;28;19963;-81
2020/12/31 06:19:39;;;;;;;;;;;;;;;1.59;99.18;97715.13;5082371;28;19920;-82
2020/12/31 06:22:11;;;;;;;;;;;;;;;1.71;98.82;97719.19;5065834;28;19916;-82
2020/12/31 06:24:40;;;;;;;;;;;;;;;1.56;99.25;97715.19;5066460;28;19920;-83
2020/12/31 06:27:07;;;;;;;;;;;;;;;1.54;98.97;97714.38;5059866;28;19931;-82
2020/12/31 06:29:43;;;;;;;;;;;;;;;1.58;99.42;97721.09;5059701;28;19930;-82
2020/12/31 06:32:27;;;;;;;;;;;;;;;1.44;99.74;97725.56;5069762;28;20346;-82
2020/12/31 06:35:05;;;;;;;;;;;;;;;1.53;99.70;97725.41;5087272;28;20356;-83
2020/12/31 06:37:30;;;;;;;;;;;;;;;1.52;99.77;97726.25;5067676;28;19961;-82
2020/12/31 06:40:14;;;;;;;;;;;;;;;1.59;99.70;97727.81;5053485;28;19949;-83
2020/12/31 06:42:58;;;;;;;;;;;;;;;1.56;99.89;97729.59;5085757;28;19949;-83
2020/12/31 06:45:33;;;;;;;;;;;;;;;1.49;100.00;97728.84;5056987;28;19927;-83
2020/12/31 06:47:59;;;;;;;;;;;;;;;1.52;99.98;97728.78;5065921;28;19997;-83
2020/12/31 06:50:43;;;;;;;;;;;;;;;1.50;100.00;97725.44;5050806;28;19938;-84
2020/12/31 06:53:27;;;;;;;;;;;;;;;1.41;100.00;97720.50;5085834;28;19924;-84
2020/12/31 06:55:52;;;;;;;;;;;;;;;1.51;100.00;97727.13;5086421;28;20438;-83
2020/12/31 06:58:27;;;;;;;;;;;;;;;1.46;100.00;97726.38;5046926;28;19920;-84
2020/12/31 07:00:52;;;;;;;;;;;;;;;1.41;100.00;97723.88;5057701;28;19920;-84
2020/12/31 07:03:36;;;;;;;;;;;;;;;1.38;100.00;97718.88;5067733;28;20010;-84
2020/12/31 07:06:20;;;;;;;;;;;;;;;1.45;100.00;97733.13;5085925;28;19920;-84
2020/12/31 07:08:45;;;;;;;;;;;;;;;1.53;100.00;97724.53;5085682;28;19920;-84
2020/12/31 07:11:11;;;;;;;;;;;;;;;1.41;100.00;97725.59;5048018;28;19920;-84
2020/12/31 07:13:38;;;;;;;;;;;;;;;1.40;100.00;97732.34;5059875;28;20274;-84
2020/12/31 07:16:04;;;;;;;;;;;;;;;1.36;100.00;97727.34;5059189;28;19923;-84
2020/12/31 07:18:29;;;;;;;;;;;;;;;1.45;100.00;97722.13;5049979;28;19924;-83
2020/12/31 07:20:55;;;;;;;;;;;;;;;1.32;100.00;97718.13;5066951;28;19920;-84
2020/12/31 07:23:20;;;;;;;;;;;;;;;1.46;100.00;97718.75;5067890;28;20011;-84
2020/12/31 07:25:45;;;;;;;;;;;;;;;1.44;100.00;97723.03;5051763;28;19920;-84
2020/12/31 07:28:17;;;;;;;;;;;;;;;1.41;100.00;97720.50;5066181;28;19969;-83
2020/12/31 07:30:52;;;;;;;;;;;;;;;1.38;100.00;97718.88;5041389;28;19927;-83
2020/12/31 07:33:33;;;;;;;;;;;;;;;1.42;100.00;97714.59;5056790;28;19989;-83
2020/12/31 07:35:58;;;;;;;;;;;;;;;1.52;100.00;97721.19;5066766;28;19920;-83
2020/12/31 07:38:24;;;;;;;;;;;;;;;1.55;100.00;97726.22;5066177;28;19977;-83
2020/12/31 07:40:53;;;;;;;;;;;;;;;1.46;100.00;97719.59;5066049;28;20293;-83
2020/12/31 07:43:25;;;;;;;;;;;;;;;1.48;100.00;97717.00;5057776;28;19920;-83
2020/12/31 07:45:52;;;;;;;;;;;;;;;1.39;100.00;97723.09;5049193;28;19928;-83
2020/12/31 07:48:18;;;;;;;;;;;;;;;1.40;100.00;97727.28;5086146;28;20357;-83
2020/12/31 07:50:43;;;;;;;;;;;;;;;1.35;100.00;97725.69;5067247;28;19974;-83
2020/12/31 07:53:09;;;;;;;;;;;;;;;1.50;100.00;97722.06;5051042;28;20346;-82
2020/12/31 07:55:35;;;;;;;;;;;;;;;1.44;100.00;97723.84;5066304;28;20432;-83
2020/12/31 07:58:01;;;;;;;;;;;;;;;1.49;100.00;97728.84;5085847;28;19965;-82
2020/12/31 08:00:26;;;;;;;;;;;;;;;1.43;100.00;97728.94;5065707;28;20416;-82
2020/12/31 08:02:52;;;;;;;;;;;;;;;1.38;100.00;97721.41;5051728;28;20694;-82
2020/12/31 08:05:18;;;;;;;;;;;;;;;1.46;100.00;97722.13;5067792;28;20008;-82
2020/12/31 08:07:44;;;;;;;;;;;;;;;1.43;100.00;97719.63;5050648;28;19916;-82
2020/12/31 08:10:09;;;;;;;;;;;;;;;1.45;100.00;97727.22;5066364;28;19923;-82
2020/12/31 08:12:41;;;;;;;;;;;;;;;1.41;100.00;97715.44;5066844;28;19943;-82
2020/12/31 08:15:07;;;;;;;;;;;;;;;1.41;100.00;97718.81;5065904;28;19916;-82
2020/12/31 08:17:32;;;;;;;;;;;;;;;1.55;100.00;97717.75;5040134;28;19931;-82
2020/12/31 08:19:57;;;;;;;;;;;;;;;1.54;100.00;97711.00;5047432;28;19921;-82
2020/12/31 08:22:26;;;;;;;;;;;;;;;1.34;100.00;97713.88;5030256;28;20860;-83
2020/12/31 08:24:58;;;;;;;;;;;;;;;1.40;100.00;97708.69;5065521;28;19940;-82
2020/12/31 08:27:24;;;;;;;;;;;;;;;1.42;100.00;97712.06;5023835;28;20389;-83
2020/12/31 08:29:49;;;;;;;;;;;;;;;1.50;100.00;97717.00;5047336;28;19921;-84
2020/12/31 08:32:20;;;;;;;;;;;;;;;1.51;99.91;97711.06;5031818;28;19916;-83
2020/12/31 08:34:46;;;;;;;;;;;;;;;1.51;100.00;97713.59;5032037;28;20428;-81
2020/12/31 08:37:14;;;;;;;;;;;;;;;1.48;99.50;97711.09;5030327;28;19916;-83
2020/12/31 08:39:39;;;;;;;;;;;;;;;1.43;99.97;97709.47;5031309;28;19920;-82
2020/12/31 08:42:04;;;;;;;;;;;;;;;1.39;99.81;97707.00;5031595;28;19917;-81
2020/12/31 08:44:30;;;;;;;;;;;;;;;1.49;99.58;97708.56;5030920;28;19912;-82
2020/12/31 08:46:55;;;;;;;;;;;;;;;1.68;99.25;97709.91;5046758;28;19920;-83
2020/12/31 08:49:26;;;;;;;;;;;;;;;1.64;98.63;97708.31;5031049;28;19912;-80
2020/12/31 08:51:52;;;;;;;;;;;;;;;1.52;99.15;97707.66;5059675;28;19916;-81
2020/12/31 08:54:17;;;;;;;;;;;;;;;1.51;99.39;97711.91;5048364;28;20606;-81
2020/12/31 08:56:43;;;;;;;;;;;;;;;1.55;99.19;97703.38;5047070;28;19916;-81
2020/12/31 08:59:08;;;;;;;;;;;;;;;1.52;98.92;97711.03;5047331;28;19921;-82
2020/12/31 09:01:34;;;;;;;;;;;;;;;1.55;98.99;97705.91;5030557;28;20472;-83
2020/12/31 09:04:16;;;;;;;;;;;;;;;1.54;98.73;97704.22;5041161;28;20011;-83
2020/12/31 09:06:42;;;;;;;;;;;;;;;1.53;99.21;97700.03;5018676;28;20200;-83
2020/12/31 09:09:17;;;;;;;;;;;;;;;1.55;98.88;97703.38;5020348;28;19919;-83
2020/12/31 09:11:50;;;;;;;;;;;;;;;1.61;98.89;97707.50;5064810;28;19912;-83
2020/12/31 09:14:16;;;;;;;;;;;;;;;1.67;98.71;97713.31;5030201;28;19920;-84
2020/12/31 09:16:41;;;;;;;;;;;;;;;1.63;98.60;97721.84;5049327;28;20449;-84
2020/12/31 09:19:07;;;;;;;;;;;;;;;1.58;98.64;97718.53;5066698;28;19920;-83
2020/12/31 09:21:32;;;;;;;;;;;;;;;1.74;98.56;97713.22;5060522;28;19912;-83
2020/12/31 09:23:57;;;;;;;;;;;;;;;1.72;98.77;97717.47;5065891;28;19913;-83
2020/12/31 09:26:23;;;;;;;;;;;;;;;1.73;98.76;97712.34;5066951;28;19927;-84
2020/12/31 09:28:49;;;;;;;;;;;;;;;1.67;98.49;97713.31;5065511;28;19923;-83
2020/12/31 09:31:15;;;;;;;;;;;;;;;1.78;98.00;97713.13;5065628;28;19927;-84
2020/12/31 09:33:40;;;;;;;;;;;;;;;1.75;98.28;97709.81;5050966;28;19920;-84
2020/12/31 09:36:06;;;;;;;;;;;;;;;1.80;98.58;97719.03;5083793;28;19962;-85
2020/12/31 09:38:31;;;;;;;;;;;;;;;1.80;98.57;97710.53;5041716;28;19923;-83
2020/12/31 09:40:56;;;;;;;;;;;;;;;1.92;98.05;97712.88;5060626;28;19984;-82
2020/12/31 09:43:22;;;;;;;;;;;;;;;1.93;98.27;97714.53;5060896;28;19927;-82
2020/12/31 09:45:47;;;;;;;;;;;;;;;1.99;98.22;97718.69;5062381;28;20380;-85
2020/12/31 09:48:12;;;;;;;;;;;;;;;2.01;98.17;97712.72;5046011;28;19924;-82
2020/12/31 09:50:38;;;;;;;;;;;;;;;1.98;97.80;97717.84;5057703;28;19997;-82
2020/12/31 09:53:03;;;;;;;;;;;;;;;2.02;97.72;97711.84;5055770;28;20010;-83
2020/12/31 09:55:29;;;;;;;;;;;;;;;1.98;97.96;97706.84;5046365;28;19931;-83
2020/12/31 09:57:54;;;;;;;;;;;;;;;2.02;98.08;97705.94;5068778;28;20979;-84
2020/12/31 10:00:20;;;;;;;;;;;;;;;2.11;98.29;97703.22;5054368;28;20366;-84
2020/12/31 10:02:45;;;;;;;;;;;;;;;1.96;98.67;97704.34;5067513;28;20563;-85
2020/12/31 10:05:11;;;;;;;;;;;;;;;1.94;98.99;97701.00;5067890;28;20014;-84
2020/12/31 10:07:36;;;;;;;;;;;;;;;2.12;98.33;97696.44;5049131;28;19916;-83
2020/12/31 10:10:01;;;;;;;;;;;;;;;2.18;97.99;97693.78;5052615;28;19912;-84
2020/12/31 10:12:27;;;;;;;;;;;;;;;2.17;98.29;97692.94;5061407;28;19920;-84
2020/12/31 10:14:52;;;;;;;;;;;;;;;2.27;98.33;97696.13;5059325;28;19927;-85
2020/12/31 10:17:18;;;;;;;;;;;;;;;2.41;97.95;97690.78;5067941;28;19924;-84
2020/12/31 10:19:43;;;;;;;;;;;;;;;2.57;97.21;97696.38;5068710;28;19920;-85
2020/12/31 10:22:09;;;;;;;;;;;;;;;2.28;97.43;97685.97;5070915;28;20561;-85
2020/12/31 10:24:34;;;;;;;;;;;;;;;2.32;97.32;97684.19;5064688;28;19912;-85
2020/12/31 10:27:00;;;;;;;;;;;;;;;2.53;96.96;97689.69;5063545;28;19920;-84
2020/12/31 10:29:25;;;;;;;;;;;;;;;2.58;96.75;97688.75;5071049;28;19917;-85
2020/12/31 10:31:53;;;;;;;;;;;;;;;2.42;97.01;97678.06;5067929;28;19920;-85
2020/12/31 10:34:19;;;;;;;;;;;;;;;2.47;97.05;97683.88;5060440;28;19920;-85
2020/12/31 10:36:52;;;;;;;;;;;;;;;2.35;95.95;97676.50;5051376;28;19993;-84
2020/12/31 10:39:18;;;;;;;;;;;;;;;2.43;96.56;97683.97;5051438;28;20034;-82
2020/12/31 10:41:44;;;;;;;;;;;;;;;2.50;96.45;97672.81;5062710;28;20491;-84
2020/12/31 10:44:10;;;;;;;;;;;;;;;2.48;96.31;97672.81;5067448;28;20438;-84
2020/12/31 10:46:35;;;;;;;;;;;;;;;2.65;96.81;97669.13;5068137;28;19915;-86
2020/12/31 10:49:00;;;;;;;;;;;;;;;2.60;96.28;97665.81;5051426;28;20058;-84
2020/12/31 10:51:26;;;;;;;;;;;;;;;2.53;96.24;97661.72;5066845;28;19973;-84
2020/12/31 10:53:51;;;;;;;;;;;;;;;2.58;96.50;97662.47;5051676;28;19920;-84
2020/12/31 10:56:20;;;;;;;;;;;;;;;2.72;96.94;97665.56;5064662;28;19916;-86
2020/12/31 10:58:45;;;;;;;;;;;;;;;2.77;95.92;97658.66;5067834;28;19920;-84
2020/12/31 11:01:13;;;;;;;;;;;;;;;2.76;95.93;97662.09;5054087;28;19969;-83
2020/12/31 11:03:38;;;;;;;;;;;;;;;2.66;96.00;97661.44;5065675;28;19920;-83
2020/12/31 11:06:03;;;;;;;;;;;;;;;2.84;95.46;97665.28;5050987;28;19931;-83
2020/12/31 11:08:29;;;;;;;;;;;;;;;2.81;94.79;97660.28;5060651;28;20590;-83
2020/12/31 11:10:54;;;;;;;;;;;;;;;2.98;94.68;97661.59;5049482;28;19924;-83
2020/12/31 11:13:20;;;;;;;;;;;;;;;3.04;94.09;97656.38;5048841;28;19920;-82
2020/12/31 11:15:45;;;;;;;;;;;;;;;2.93;94.91;97654.91;5065890;28;20498;-82
2020/12/31 11:18:10;;;;;;;;;;;;;;;3.18;93.84;97659.41;5084874;28;19983;-83
2020/12/31 11:20:36;;;;;;;;;;;;;;;3.00;95.15;97659.84;5069459;28;19924;-82
2020/12/31 11:23:01;;;;;;;;;;;;;;;3.04;93.78;97651.28;5079914;28;19912;-82
2020/12/31 11:25:26;;;;;;;;;;;;;;;2.98;94.00;97651.41;5067475;28;19998;-82
2020/12/31 11:27:52;;;;;;;;;;;;;;;2.87;92.62;97651.66;5053532;28;19920;-81
2020/12/31 11:30:17;;;;;;;;;;;;;;;2.87;93.87;97644.88;5078500;28;19941;-82
2020/12/31 11:32:42;;;;;;;;;;;;;;;2.91;93.51;97641.38;5067411;28;20384;-81
2020/12/31 11:35:08;;;;;;;;;;;;;;;2.98;93.95;97647.16;5069107;28;19969;-81
2020/12/31 11:37:33;;;;;;;;;;;;;;;3.01;93.02;97641.16;5051516;28;20499;-81
2020/12/31 11:39:59;;;;;;;;;;;;;;;2.91;92.02;97641.38;5067717;28;19920;-81
2020/12/31 11:42:25;;;;;;;;;;;;;;;2.97;93.04;97635.34;5065983;28;20356;-82
2020/12/31 11:44:50;;;;;;;;;;;;;;;3.00;93.23;97634.41;5053300;28;19955;-81
2020/12/31 11:47:15;;;;;;;;;;;;;;;3.07;92.56;97630.84;5060132;28;20382;-81
2020/12/31 11:49:40;;;;;;;;;;;;;;;3.10;94.80;97630.78;5069409;28;19916;-81
2020/12/31 11:52:06;;;;;;;;;;;;;;;2.88;92.11;97625.38;5070169;28;19931;-81
2020/12/31 11:54:31;;;;;;;;;;;;;;;2.81;93.00;97622.13;5066925;28;19924;-81
2020/12/31 11:56:57;;;;;;;;;;;;;;;2.81;92.67;97621.31;5077069;28;19923;-80
2020/12/31 11:59:22;;;;;;;;;;;;;;;2.73;91.29;97622.28;5066534;28;19924;-81
2020/12/31 12:01:50;;;;;;;;;;;;;;;2.88;91.93;97617.75;5060997;28;20008;-81
2020/12/31 12:04:16;;;;;;;;;;;;;;;2.74;91.93;97618.06;5068402;28;20392;-81
2020/12/31 12:06:46;;;;;;;;;;;;;;;2.75;91.40;97624.81;5068417;28;19916;-81
2020/12/31 12:09:12;;;;;;;;;;;;;;;2.78;91.67;97622.19;5068312;28;19927;-81
2020/12/31 12:11:37;;;;;;;;;;;;;;;3.05;93.20;97618.16;5070342;28;19916;-81
2020/12/31 12:14:02;;;;;;;;;;;;;;;2.71;91.06;97613.03;5069122;28;19912;-81
2020/12/31 12:16:28;;;;;;;;;;;;;;;2.76;92.62;97610.38;5069970;28;19912;-81
2020/12/31 12:18:53;;;;;;;;;;;;;;;2.68;92.63;97613.13;5064252;28;19988;-81
2020/12/31 12:21:19;;;;;;;;;;;;;;;3.03;94.16;97619.06;5069749;28;19916;-81
2020/12/31 12:23:44;;;;;;;;;;;;;;;2.91;91.03;97615.13;5087647;28;20016;-81
2020/12/31 12:26:11;;;;;;;;;;;;;;;2.83;91.91;97617.00;5070256;28;19920;-81
2020/12/31 12:28:36;;;;;;;;;;;;;;;2.82;92.88;97620.44;5086824;28;19920;-80
2020/12/31 12:31:02;;;;;;;;;;;;;;;2.81;91.70;97617.06;5049528;28;20010;-80
2020/12/31 12:33:27;;;;;;;;;;;;;;;2.87;92.86;97614.38;5075195;28;19955;-80
2020/12/31 12:35:52;;;;;;;;;;;;;;;2.70;93.27;97617.28;5067233;28;20450;-80
2020/12/31 12:38:18;;;;;;;;;;;;;;;2.74;93.71;97618.06;5060155;28;19923;-80
2020/12/31 12:40:43;;;;;;;;;;;;;;;2.60;94.24;97609.91;5049698;28;19976;-81
2020/12/31 12:43:08;;;;;;;;;;;;;;;2.61;95.29;97606.50;5066695;28;19909;-81
2020/12/31 12:45:33;;;;;;;;;;;;;;;2.49;94.03;97618.59;5058755;28;19919;-83
2020/12/31 12:47:59;;;;;;;;;;;;;;;2.51;95.43;97616.03;5084178;28;19983;-81
2020/12/31 12:50:24;;;;;;;;;;;;;;;2.53;95.87;97619.34;5048331;28;20060;-80
2020/12/31 12:52:50;;;;;;;;;;;;;;;2.44;95.87;97610.25;5064361;28;20177;-80